sensor_id;sensor_type;location;lat;lon;timestamp;P1;durP1;ratioP1;P2;durP2;ratioP2
76617;SDS011;65509;42.816;74.648;2023-09-19T00:00:05;20.10;;;5.30;;
76617;SDS011;65509;42.816;74.648;2023-09-19T00:02:31;20.95;;;5.25;;
76617;SDS011;65509;42.816;74.648;2023-09-19T00:04:58;21.95;;;5.70;;
76617;SDS011;65509;42.816;74.648;2023-09-19T00:07:24;21.63;;;5.18;;
76617;SDS011;65509;42.816;74.648;2023-09-19T00:09:49;25.08;;;5.88;;
76617;SDS011;65509;42.816;74.648;2023-09-19T00:12:15;23.23;;;5.20;;
76617;SDS011;65509;42.816;74.648;2023-09-19T00:14:40;24.92;;;5.90;;
76617;SDS011;65509;42.816;74.648;2023-09-19T00:17:06;23.42;;;5.03;;
76617;SDS011;65509;42.816;74.648;2023-09-19T00:19:33;17.77;;;4.75;;
76617;SDS011;65509;42.816;74.648;2023-09-19T00:21:59;20.77;;;4.78;;
76617;SDS011;65509;42.816;74.648;2023-09-19T00:24:24;16.75;;;3.95;;
76617;SDS011;65509;42.816;74.648;2023-09-19T00:26:50;24.73;;;5.10;;
76617;SDS011;65509;42.816;74.648;2023-09-19T00:29:15;25.40;;;5.50;;
76617;SDS011;65509;42.816;74.648;2023-09-19T00:31:44;27.80;;;5.90;;
76617;SDS011;65509;42.816;74.648;2023-09-19T00:34:10;19.02;;;4.97;;
76617;SDS011;65509;42.816;74.648;2023-09-19T00:36:38;20.92;;;5.03;;
76617;SDS011;65509;42.816;74.648;2023-09-19T00:39:05;19.98;;;5.10;;
76617;SDS011;65509;42.816;74.648;2023-09-19T00:41:33;18.48;;;4.40;;
76617;SDS011;65509;42.816;74.648;2023-09-19T00:44:01;21.10;;;5.13;;
76617;SDS011;65509;42.816;74.648;2023-09-19T00:46:27;23.48;;;4.90;;
76617;SDS011;65509;42.816;74.648;2023-09-19T00:48:53;26.95;;;6.20;;
76617;SDS011;65509;42.816;74.648;2023-09-19T00:51:18;18.80;;;5.55;;
76617;SDS011;65509;42.816;74.648;2023-09-19T00:53:47;27.25;;;5.93;;
76617;SDS011;65509;42.816;74.648;2023-09-19T00:56:13;24.95;;;5.38;;
76617;SDS011;65509;42.816;74.648;2023-09-19T00:58:40;21.63;;;5.05;;
76617;SDS011;65509;42.816;74.648;2023-09-19T01:01:05;27.15;;;5.68;;
76617;SDS011;65509;42.816;74.648;2023-09-19T01:03:36;23.35;;;5.25;;
76617;SDS011;65509;42.816;74.648;2023-09-19T01:06:01;21.00;;;5.60;;
76617;SDS011;65509;42.816;74.648;2023-09-19T01:08:27;17.85;;;4.80;;
76617;SDS011;65509;42.816;74.648;2023-09-19T01:11:05;26.38;;;5.68;;
76617;SDS011;65509;42.816;74.648;2023-09-19T01:18:47;31.60;;;5.90;;
76617;SDS011;65509;42.816;74.648;2023-09-19T01:29:10;16.03;;;4.77;;
76617;SDS011;65509;42.816;74.648;2023-09-19T01:31:38;21.20;;;4.80;;
76617;SDS011;65509;42.816;74.648;2023-09-19T01:34:05;33.20;;;5.72;;
76617;SDS011;65509;42.816;74.648;2023-09-19T01:36:33;34.35;;;6.60;;
76617;SDS011;65509;42.816;74.648;2023-09-19T01:39:10;29.63;;;5.78;;
76617;SDS011;65509;42.816;74.648;2023-09-19T01:44:26;24.33;;;6.95;;
76617;SDS011;65509;42.816;74.648;2023-09-19T01:49:32;19.05;;;5.35;;
76617;SDS011;65509;42.816;74.648;2023-09-19T01:52:20;24.13;;;5.65;;
76617;SDS011;65509;42.816;74.648;2023-09-19T01:54:51;23.10;;;6.22;;
76617;SDS011;65509;42.816;74.648;2023-09-19T01:57:22;28.83;;;6.03;;
76617;SDS011;65509;42.816;74.648;2023-09-19T02:00:26;35.35;;;5.97;;
76617;SDS011;65509;42.816;74.648;2023-09-19T02:02:46;29.40;;;6.03;;
76617;SDS011;65509;42.816;74.648;2023-09-19T02:05:13;20.48;;;5.13;;
76617;SDS011;65509;42.816;74.648;2023-09-19T02:07:38;35.90;;;7.60;;
76617;SDS011;65509;42.816;74.648;2023-09-19T02:10:05;42.47;;;6.68;;
76617;SDS011;65509;42.816;74.648;2023-09-19T02:12:32;23.75;;;6.00;;
76617;SDS011;65509;42.816;74.648;2023-09-19T02:15:00;26.10;;;5.53;;
76617;SDS011;65509;42.816;74.648;2023-09-19T02:17:26;29.33;;;5.57;;
76617;SDS011;65509;42.816;74.648;2023-09-19T02:19:52;29.50;;;6.93;;
76617;SDS011;65509;42.816;74.648;2023-09-19T02:22:18;21.05;;;5.90;;
76617;SDS011;65509;42.816;74.648;2023-09-19T02:24:43;30.50;;;5.90;;
76617;SDS011;65509;42.816;74.648;2023-09-19T02:27:09;26.35;;;6.43;;
76617;SDS011;65509;42.816;74.648;2023-09-19T02:29:37;20.23;;;5.78;;
76617;SDS011;65509;42.816;74.648;2023-09-19T02:32:03;31.67;;;5.10;;
76617;SDS011;65509;42.816;74.648;2023-09-19T02:34:29;33.20;;;6.07;;
76617;SDS011;65509;42.816;74.648;2023-09-19T02:36:54;34.85;;;7.32;;
76617;SDS011;65509;42.816;74.648;2023-09-19T02:39:38;29.58;;;7.13;;
76617;SDS011;65509;42.816;74.648;2023-09-19T02:42:04;24.13;;;6.85;;
76617;SDS011;65509;42.816;74.648;2023-09-19T02:44:30;28.42;;;7.00;;
76617;SDS011;65509;42.816;74.648;2023-09-19T02:46:55;31.98;;;8.85;;
76617;SDS011;65509;42.816;74.648;2023-09-19T02:49:22;44.10;;;9.07;;
76617;SDS011;65509;42.816;74.648;2023-09-19T02:51:48;29.02;;;8.15;;
76617;SDS011;65509;42.816;74.648;2023-09-19T02:54:13;29.45;;;7.75;;
76617;SDS011;65509;42.816;74.648;2023-09-19T02:56:40;27.33;;;7.10;;
76617;SDS011;65509;42.816;74.648;2023-09-19T02:59:06;19.17;;;6.07;;
76617;SDS011;65509;42.816;74.648;2023-09-19T03:01:32;28.70;;;7.43;;
76617;SDS011;65509;42.816;74.648;2023-09-19T03:03:58;27.13;;;7.47;;
76617;SDS011;65509;42.816;74.648;2023-09-19T03:06:24;28.40;;;7.95;;
76617;SDS011;65509;42.816;74.648;2023-09-19T03:08:49;28.95;;;8.10;;
76617;SDS011;65509;42.816;74.648;2023-09-19T03:11:16;30.25;;;7.80;;
76617;SDS011;65509;42.816;74.648;2023-09-19T03:13:44;22.42;;;7.78;;
76617;SDS011;65509;42.816;74.648;2023-09-19T03:16:11;27.20;;;7.43;;
76617;SDS011;65509;42.816;74.648;2023-09-19T03:18:36;25.80;;;6.93;;
76617;SDS011;65509;42.816;74.648;2023-09-19T03:21:02;33.47;;;7.82;;
76617;SDS011;65509;42.816;74.648;2023-09-19T03:23:27;25.98;;;6.78;;
76617;SDS011;65509;42.816;74.648;2023-09-19T03:25:54;29.13;;;6.30;;
76617;SDS011;65509;42.816;74.648;2023-09-19T03:28:19;28.48;;;6.40;;
76617;SDS011;65509;42.816;74.648;2023-09-19T03:30:56;28.30;;;7.38;;
76617;SDS011;65509;42.816;74.648;2023-09-19T03:33:22;36.97;;;9.40;;
76617;SDS011;65509;42.816;74.648;2023-09-19T03:35:51;44.55;;;11.77;;
76617;SDS011;65509;42.816;74.648;2023-09-19T03:38:26;35.47;;;13.90;;
76617;SDS011;65509;42.816;74.648;2023-09-19T03:40:52;47.53;;;13.27;;
76617;SDS011;65509;42.816;74.648;2023-09-19T03:43:17;32.92;;;14.40;;
76617;SDS011;65509;42.816;74.648;2023-09-19T03:45:44;39.55;;;13.85;;
76617;SDS011;65509;42.816;74.648;2023-09-19T03:48:10;32.42;;;12.52;;
76617;SDS011;65509;42.816;74.648;2023-09-19T03:50:35;34.35;;;11.80;;
76617;SDS011;65509;42.816;74.648;2023-09-19T03:53:01;50.22;;;11.43;;
76617;SDS011;65509;42.816;74.648;2023-09-19T03:55:27;36.20;;;9.23;;
76617;SDS011;65509;42.816;74.648;2023-09-19T03:57:53;31.63;;;9.55;;
76617;SDS011;65509;42.816;74.648;2023-09-19T04:00:18;29.50;;;8.07;;
76617;SDS011;65509;42.816;74.648;2023-09-19T04:02:47;37.50;;;7.78;;
76617;SDS011;65509;42.816;74.648;2023-09-19T04:05:12;24.70;;;7.10;;
76617;SDS011;65509;42.816;74.648;2023-09-19T04:07:38;31.30;;;7.07;;
76617;SDS011;65509;42.816;74.648;2023-09-19T04:10:04;23.48;;;6.68;;
76617;SDS011;65509;42.816;74.648;2023-09-19T04:12:29;36.88;;;6.78;;
76617;SDS011;65509;42.816;74.648;2023-09-19T04:14:55;30.25;;;6.80;;
76617;SDS011;65509;42.816;74.648;2023-09-19T04:17:20;22.77;;;6.10;;
76617;SDS011;65509;42.816;74.648;2023-09-19T04:19:46;33.53;;;7.47;;
76617;SDS011;65509;42.816;74.648;2023-09-19T04:22:11;40.25;;;6.90;;
76617;SDS011;65509;42.816;74.648;2023-09-19T04:24:38;29.42;;;6.80;;
76617;SDS011;65509;42.816;74.648;2023-09-19T04:27:04;26.77;;;5.50;;
76617;SDS011;65509;42.816;74.648;2023-09-19T04:29:29;32.05;;;6.50;;
76617;SDS011;65509;42.816;74.648;2023-09-19T04:31:55;52.20;;;8.13;;
76617;SDS011;65509;42.816;74.648;2023-09-19T04:34:22;31.40;;;6.00;;
76617;SDS011;65509;42.816;74.648;2023-09-19T04:36:49;48.30;;;7.70;;
76617;SDS011;65509;42.816;74.648;2023-09-19T04:39:15;40.05;;;6.75;;
76617;SDS011;65509;42.816;74.648;2023-09-19T04:41:40;36.00;;;6.55;;
76617;SDS011;65509;42.816;74.648;2023-09-19T04:44:06;36.72;;;6.80;;
76617;SDS011;65509;42.816;74.648;2023-09-19T04:46:32;33.60;;;7.80;;
76617;SDS011;65509;42.816;74.648;2023-09-19T04:48:58;40.42;;;8.00;;
76617;SDS011;65509;42.816;74.648;2023-09-19T04:51:24;43.53;;;6.78;;
76617;SDS011;65509;42.816;74.648;2023-09-19T04:53:50;36.30;;;6.90;;
76617;SDS011;65509;42.816;74.648;2023-09-19T04:56:16;31.48;;;6.38;;
76617;SDS011;65509;42.816;74.648;2023-09-19T04:58:41;40.13;;;7.03;;
76617;SDS011;65509;42.816;74.648;2023-09-19T05:01:07;43.35;;;8.25;;
76617;SDS011;65509;42.816;74.648;2023-09-19T05:03:36;34.75;;;7.15;;
76617;SDS011;65509;42.816;74.648;2023-09-19T05:06:02;40.22;;;7.38;;
76617;SDS011;65509;42.816;74.648;2023-09-19T05:08:27;35.17;;;6.15;;
76617;SDS011;65509;42.816;74.648;2023-09-19T05:10:54;53.65;;;8.50;;
76617;SDS011;65509;42.816;74.648;2023-09-19T05:13:21;34.80;;;6.95;;
76617;SDS011;65509;42.816;74.648;2023-09-19T05:15:48;43.00;;;7.82;;
76617;SDS011;65509;42.816;74.648;2023-09-19T05:18:15;29.35;;;6.55;;
76617;SDS011;65509;42.816;74.648;2023-09-19T05:20:40;44.78;;;7.47;;
76617;SDS011;65509;42.816;74.648;2023-09-19T05:23:11;48.85;;;8.85;;
76617;SDS011;65509;42.816;74.648;2023-09-19T05:25:37;34.78;;;7.07;;
76617;SDS011;65509;42.816;74.648;2023-09-19T05:28:04;42.85;;;8.10;;
76617;SDS011;65509;42.816;74.648;2023-09-19T05:30:31;28.85;;;6.47;;
76617;SDS011;65509;42.816;74.648;2023-09-19T05:32:57;48.28;;;9.05;;
76617;SDS011;65509;42.816;74.648;2023-09-19T05:35:22;42.97;;;8.05;;
76617;SDS011;65509;42.816;74.648;2023-09-19T05:37:48;41.95;;;7.60;;
76617;SDS011;65509;42.816;74.648;2023-09-19T05:40:16;43.47;;;7.53;;
76617;SDS011;65509;42.816;74.648;2023-09-19T05:42:42;33.10;;;6.43;;
76617;SDS011;65509;42.816;74.648;2023-09-19T05:45:09;39.88;;;7.68;;
76617;SDS011;65509;42.816;74.648;2023-09-19T05:47:37;36.90;;;7.47;;
76617;SDS011;65509;42.816;74.648;2023-09-19T05:50:03;54.70;;;9.07;;
76617;SDS011;65509;42.816;74.648;2023-09-19T05:52:28;34.05;;;7.78;;
76617;SDS011;65509;42.816;74.648;2023-09-19T05:54:54;33.50;;;6.90;;
76617;SDS011;65509;42.816;74.648;2023-09-19T05:57:21;30.67;;;6.38;;
76617;SDS011;65509;42.816;74.648;2023-09-19T05:59:47;37.70;;;7.15;;
76617;SDS011;65509;42.816;74.648;2023-09-19T06:02:14;31.48;;;7.03;;
76617;SDS011;65509;42.816;74.648;2023-09-19T06:04:40;54.72;;;8.68;;
76617;SDS011;65509;42.816;74.648;2023-09-19T06:07:06;41.95;;;8.43;;
76617;SDS011;65509;42.816;74.648;2023-09-19T06:09:31;40.33;;;7.82;;
76617;SDS011;65509;42.816;74.648;2023-09-19T06:11:57;40.88;;;8.20;;
76617;SDS011;65509;42.816;74.648;2023-09-19T06:14:23;46.20;;;8.15;;
76617;SDS011;65509;42.816;74.648;2023-09-19T06:16:49;38.05;;;7.50;;
76617;SDS011;65509;42.816;74.648;2023-09-19T06:19:17;35.72;;;7.40;;
76617;SDS011;65509;42.816;74.648;2023-09-19T06:21:43;27.60;;;6.78;;
76617;SDS011;65509;42.816;74.648;2023-09-19T06:24:10;35.97;;;8.10;;
76617;SDS011;65509;42.816;74.648;2023-09-19T06:26:36;36.20;;;8.00;;
76617;SDS011;65509;42.816;74.648;2023-09-19T06:29:02;48.75;;;9.02;;
76617;SDS011;65509;42.816;74.648;2023-09-19T06:31:32;35.67;;;7.70;;
76617;SDS011;65509;42.816;74.648;2023-09-19T06:33:58;37.83;;;8.02;;
76617;SDS011;65509;42.816;74.648;2023-09-19T06:36:23;34.53;;;7.68;;
76617;SDS011;65509;42.816;74.648;2023-09-19T06:38:50;34.55;;;7.57;;
76617;SDS011;65509;42.816;74.648;2023-09-19T06:41:17;36.80;;;8.07;;
76617;SDS011;65509;42.816;74.648;2023-09-19T06:43:42;32.20;;;6.97;;
76617;SDS011;65509;42.816;74.648;2023-09-19T06:46:08;35.80;;;7.28;;
76617;SDS011;65509;42.816;74.648;2023-09-19T06:48:34;24.88;;;6.68;;
76617;SDS011;65509;42.816;74.648;2023-09-19T06:54:27;29.23;;;6.43;;
76617;SDS011;65509;42.816;74.648;2023-09-19T06:56:56;33.63;;;7.45;;
76617;SDS011;65509;42.816;74.648;2023-09-19T06:59:23;45.05;;;8.25;;
76617;SDS011;65509;42.816;74.648;2023-09-19T07:01:48;29.63;;;6.93;;
76617;SDS011;65509;42.816;74.648;2023-09-19T07:04:15;28.48;;;6.82;;
76617;SDS011;65509;42.816;74.648;2023-09-19T07:06:42;19.98;;;5.40;;
76617;SDS011;65509;42.816;74.648;2023-09-19T07:09:07;39.60;;;8.05;;
76617;SDS011;65509;42.816;74.648;2023-09-19T07:11:33;34.47;;;6.47;;
76617;SDS011;65509;42.816;74.648;2023-09-19T07:13:59;74.45;;;10.65;;
76617;SDS011;65509;42.816;74.648;2023-09-19T07:16:24;39.78;;;8.35;;
76617;SDS011;65509;42.816;74.648;2023-09-19T07:18:55;26.10;;;6.43;;
76617;SDS011;65509;42.816;74.648;2023-09-19T07:21:22;38.67;;;7.22;;
76617;SDS011;65509;42.816;74.648;2023-09-19T07:23:47;34.47;;;7.88;;
76617;SDS011;65509;42.816;74.648;2023-09-19T07:26:12;40.22;;;7.35;;
76617;SDS011;65509;42.816;74.648;2023-09-19T07:28:38;25.60;;;5.95;;
76617;SDS011;65509;42.816;74.648;2023-09-19T07:31:03;33.42;;;7.05;;
76617;SDS011;65509;42.816;74.648;2023-09-19T07:33:30;29.15;;;6.68;;
76617;SDS011;65509;42.816;74.648;2023-09-19T07:35:55;35.42;;;7.90;;
76617;SDS011;65509;42.816;74.648;2023-09-19T07:38:21;37.38;;;7.05;;
76617;SDS011;65509;42.816;74.648;2023-09-19T07:40:48;32.38;;;6.72;;
76617;SDS011;65509;42.816;74.648;2023-09-19T07:43:13;39.00;;;7.95;;
76617;SDS011;65509;42.816;74.648;2023-09-19T07:45:39;38.70;;;6.93;;
76617;SDS011;65509;42.816;74.648;2023-09-19T07:48:04;39.72;;;8.18;;
76617;SDS011;65509;42.816;74.648;2023-09-19T07:50:33;37.72;;;7.20;;
76617;SDS011;65509;42.816;74.648;2023-09-19T07:52:58;35.72;;;7.10;;
76617;SDS011;65509;42.816;74.648;2023-09-19T07:55:24;46.50;;;8.57;;
76617;SDS011;65509;42.816;74.648;2023-09-19T07:57:50;40.15;;;8.98;;
76617;SDS011;65509;42.816;74.648;2023-09-19T08:00:16;34.20;;;7.15;;
76617;SDS011;65509;42.816;74.648;2023-09-19T08:02:42;37.72;;;7.15;;
76617;SDS011;65509;42.816;74.648;2023-09-19T08:05:08;39.67;;;7.53;;
76617;SDS011;65509;42.816;74.648;2023-09-19T08:10:59;36.90;;;7.00;;
76617;SDS011;65509;42.816;74.648;2023-09-19T08:13:25;38.65;;;7.85;;
76617;SDS011;65509;42.816;74.648;2023-09-19T08:15:51;33.58;;;7.18;;
76617;SDS011;65509;42.816;74.648;2023-09-19T08:18:20;41.75;;;7.90;;
76617;SDS011;65509;42.816;74.648;2023-09-19T08:21:05;46.20;;;8.98;;
76617;SDS011;65509;42.816;74.648;2023-09-19T08:23:42;35.17;;;7.10;;
76617;SDS011;65509;42.816;74.648;2023-09-19T08:29:07;38.65;;;6.70;;
76617;SDS011;65509;42.816;74.648;2023-09-19T08:31:37;36.92;;;7.35;;
76617;SDS011;65509;42.816;74.648;2023-09-19T08:34:02;59.65;;;11.73;;
76617;SDS011;65509;42.816;74.648;2023-09-19T08:36:28;40.13;;;9.57;;
76617;SDS011;65509;42.816;74.648;2023-09-19T08:38:53;43.67;;;8.82;;
76617;SDS011;65509;42.816;74.648;2023-09-19T08:41:19;39.88;;;8.68;;
76617;SDS011;65509;42.816;74.648;2023-09-19T08:43:44;34.47;;;6.35;;
76617;SDS011;65509;42.816;74.648;2023-09-19T08:46:14;53.28;;;9.15;;
76617;SDS011;65509;42.816;74.648;2023-09-19T08:48:49;35.17;;;7.22;;
76617;SDS011;65509;42.816;74.648;2023-09-19T08:54:24;55.53;;;9.45;;
76617;SDS011;65509;42.816;74.648;2023-09-19T08:56:51;55.40;;;8.52;;
76617;SDS011;65509;42.816;74.648;2023-09-19T08:59:20;48.70;;;8.85;;
76617;SDS011;65509;42.816;74.648;2023-09-19T09:01:49;40.13;;;8.10;;
76617;SDS011;65509;42.816;74.648;2023-09-19T09:04:18;39.83;;;7.85;;
76617;SDS011;65509;42.816;74.648;2023-09-19T09:06:44;47.03;;;8.20;;
76617;SDS011;65509;42.816;74.648;2023-09-19T09:09:10;50.30;;;9.13;;
76617;SDS011;65509;42.816;74.648;2023-09-19T09:11:35;43.28;;;7.40;;
76617;SDS011;65509;42.816;74.648;2023-09-19T09:14:05;51.78;;;7.75;;
76617;SDS011;65509;42.816;74.648;2023-09-19T09:16:32;29.52;;;6.55;;
76617;SDS011;65509;42.816;74.648;2023-09-19T09:18:57;59.83;;;9.50;;
76617;SDS011;65509;42.816;74.648;2023-09-19T09:21:26;33.53;;;6.10;;
76617;SDS011;65509;42.816;74.648;2023-09-19T09:29:42;39.20;;;7.30;;
76617;SDS011;65509;42.816;74.648;2023-09-19T09:34:47;32.33;;;7.28;;
76617;SDS011;65509;42.816;74.648;2023-09-19T09:37:17;56.53;;;14.27;;
76617;SDS011;65509;42.816;74.648;2023-09-19T09:39:55;52.50;;;8.48;;
76617;SDS011;65509;42.816;74.648;2023-09-19T09:42:31;44.47;;;8.45;;
76617;SDS011;65509;42.816;74.648;2023-09-19T09:45:19;40.45;;;8.52;;
76617;SDS011;65509;42.816;74.648;2023-09-19T09:47:50;55.75;;;10.65;;
76617;SDS011;65509;42.816;74.648;2023-09-19T09:50:24;56.22;;;12.50;;
76617;SDS011;65509;42.816;74.648;2023-09-19T09:52:54;46.03;;;9.00;;
76617;SDS011;65509;42.816;74.648;2023-09-19T09:55:26;37.08;;;8.13;;
76617;SDS011;65509;42.816;74.648;2023-09-19T09:58:02;37.40;;;7.20;;
76617;SDS011;65509;42.816;74.648;2023-09-19T10:00:51;27.42;;;6.50;;
76617;SDS011;65509;42.816;74.648;2023-09-19T10:03:30;49.22;;;7.80;;
76617;SDS011;65509;42.816;74.648;2023-09-19T10:06:00;40.85;;;10.07;;
76617;SDS011;65509;42.816;74.648;2023-09-19T10:12:07;56.15;;;11.07;;
76617;SDS011;65509;42.816;74.648;2023-09-19T10:14:37;37.25;;;10.77;;
76617;SDS011;65509;42.816;74.648;2023-09-19T10:17:04;35.83;;;9.77;;
76617;SDS011;65509;42.816;74.648;2023-09-19T10:19:31;38.97;;;8.68;;
76617;SDS011;65509;42.816;74.648;2023-09-19T10:22:22;43.67;;;8.95;;
76617;SDS011;65509;42.816;74.648;2023-09-19T10:25:09;47.67;;;13.38;;
76617;SDS011;65509;42.816;74.648;2023-09-19T10:27:35;46.88;;;10.65;;
76617;SDS011;65509;42.816;74.648;2023-09-19T10:30:04;47.95;;;12.27;;
76617;SDS011;65509;42.816;74.648;2023-09-19T10:32:34;37.67;;;8.25;;
76617;SDS011;65509;42.816;74.648;2023-09-19T10:37:57;51.67;;;15.52;;
76617;SDS011;65509;42.816;74.648;2023-09-19T10:40:26;49.05;;;8.68;;
76617;SDS011;65509;42.816;74.648;2023-09-19T10:43:00;55.67;;;13.27;;
76617;SDS011;65509;42.816;74.648;2023-09-19T10:45:26;53.08;;;11.57;;
76617;SDS011;65509;42.816;74.648;2023-09-19T10:47:54;50.58;;;11.13;;
76617;SDS011;65509;42.816;74.648;2023-09-19T10:50:21;54.58;;;11.48;;
76617;SDS011;65509;42.816;74.648;2023-09-19T10:52:47;46.53;;;9.77;;
76617;SDS011;65509;42.816;74.648;2023-09-19T10:55:18;64.80;;;10.23;;
76617;SDS011;65509;42.816;74.648;2023-09-19T10:57:45;47.17;;;8.60;;
76617;SDS011;65509;42.816;74.648;2023-09-19T11:00:12;55.92;;;9.57;;
76617;SDS011;65509;42.816;74.648;2023-09-19T11:05:39;49.58;;;10.13;;
76617;SDS011;65509;42.816;74.648;2023-09-19T11:08:08;58.47;;;8.73;;
76617;SDS011;65509;42.816;74.648;2023-09-19T11:10:48;41.88;;;8.00;;
76617;SDS011;65509;42.816;74.648;2023-09-19T11:13:25;68.70;;;9.80;;
76617;SDS011;65509;42.816;74.648;2023-09-19T11:19:23;57.00;;;9.52;;
76617;SDS011;65509;42.816;74.648;2023-09-19T11:26:44;34.88;;;6.22;;
76617;SDS011;65509;42.816;74.648;2023-09-19T11:29:28;51.65;;;9.70;;
76617;SDS011;65509;42.816;74.648;2023-09-19T11:31:55;54.28;;;9.50;;
76617;SDS011;65509;42.816;74.648;2023-09-19T11:42:43;74.00;;;14.98;;
76617;SDS011;65509;42.816;74.648;2023-09-19T11:48:03;52.88;;;8.05;;
76617;SDS011;65509;42.816;74.648;2023-09-19T11:50:31;52.63;;;7.22;;
76617;SDS011;65509;42.816;74.648;2023-09-19T11:52:57;53.47;;;8.13;;
76617;SDS011;65509;42.816;74.648;2023-09-19T11:55:23;60.10;;;8.20;;
76617;SDS011;65509;42.816;74.648;2023-09-19T11:57:50;48.63;;;8.63;;
76617;SDS011;65509;42.816;74.648;2023-09-19T12:00:19;61.38;;;8.48;;
76617;SDS011;65509;42.816;74.648;2023-09-19T12:02:46;39.33;;;6.93;;
76617;SDS011;65509;42.816;74.648;2023-09-19T12:05:12;60.15;;;8.75;;
76617;SDS011;65509;42.816;74.648;2023-09-19T12:07:44;58.05;;;7.95;;
76617;SDS011;65509;42.816;74.648;2023-09-19T12:10:12;61.53;;;8.55;;
76617;SDS011;65509;42.816;74.648;2023-09-19T12:12:46;58.58;;;8.00;;
76617;SDS011;65509;42.816;74.648;2023-09-19T12:15:13;67.10;;;9.25;;
76617;SDS011;65509;42.816;74.648;2023-09-19T12:17:39;53.03;;;8.00;;
76617;SDS011;65509;42.816;74.648;2023-09-19T12:20:06;41.45;;;6.78;;
76617;SDS011;65509;42.816;74.648;2023-09-19T12:22:45;57.88;;;8.15;;
76617;SDS011;65509;42.816;74.648;2023-09-19T12:25:11;65.72;;;8.43;;
76617;SDS011;65509;42.816;74.648;2023-09-19T12:27:44;53.85;;;8.57;;
76617;SDS011;65509;42.816;74.648;2023-09-19T12:30:12;57.15;;;8.55;;
76617;SDS011;65509;42.816;74.648;2023-09-19T12:32:40;57.08;;;8.48;;
76617;SDS011;65509;42.816;74.648;2023-09-19T12:35:07;57.97;;;8.57;;
76617;SDS011;65509;42.816;74.648;2023-09-19T12:37:36;56.65;;;8.80;;
76617;SDS011;65509;42.816;74.648;2023-09-19T12:40:05;51.25;;;8.55;;
76617;SDS011;65509;42.816;74.648;2023-09-19T12:42:52;50.90;;;7.85;;
76617;SDS011;65509;42.816;74.648;2023-09-19T12:45:20;60.75;;;9.00;;
76617;SDS011;65509;42.816;74.648;2023-09-19T12:50:33;54.22;;;7.70;;
76617;SDS011;65509;42.816;74.648;2023-09-19T12:52:58;55.83;;;7.30;;
76617;SDS011;65509;42.816;74.648;2023-09-19T13:00:33;46.25;;;6.90;;
76617;SDS011;65509;42.816;74.648;2023-09-19T13:03:12;47.83;;;6.63;;
76617;SDS011;65509;42.816;74.648;2023-09-19T13:05:57;42.67;;;6.13;;
76617;SDS011;65509;42.816;74.648;2023-09-19T13:08:25;43.03;;;6.50;;
76617;SDS011;65509;42.816;74.648;2023-09-19T13:11:07;53.35;;;7.35;;
76617;SDS011;65509;42.816;74.648;2023-09-19T13:13:38;55.60;;;8.20;;
76617;SDS011;65509;42.816;74.648;2023-09-19T13:16:04;57.35;;;8.40;;
76617;SDS011;65509;42.816;74.648;2023-09-19T13:21:32;83.20;;;11.68;;
76617;SDS011;65509;42.816;74.648;2023-09-19T13:24:20;65.97;;;10.93;;
76617;SDS011;65509;42.816;74.648;2023-09-19T13:26:46;58.17;;;10.93;;
76617;SDS011;65509;42.816;74.648;2023-09-19T13:29:14;62.67;;;12.88;;
76617;SDS011;65509;42.816;74.648;2023-09-19T13:31:46;63.25;;;12.73;;
76617;SDS011;65509;42.816;74.648;2023-09-19T13:34:12;63.63;;;11.55;;
76617;SDS011;65509;42.816;74.648;2023-09-19T13:36:39;53.22;;;9.43;;
76617;SDS011;65509;42.816;74.648;2023-09-19T13:39:04;50.20;;;8.73;;
76617;SDS011;65509;42.816;74.648;2023-09-19T13:41:34;56.15;;;9.23;;
76617;SDS011;65509;42.816;74.648;2023-09-19T13:44:16;64.05;;;9.10;;
76617;SDS011;65509;42.816;74.648;2023-09-19T13:46:43;47.47;;;9.82;;
76617;SDS011;65509;42.816;74.648;2023-09-19T13:49:11;56.25;;;10.50;;
76617;SDS011;65509;42.816;74.648;2023-09-19T13:51:36;51.00;;;9.63;;
76617;SDS011;65509;42.816;74.648;2023-09-19T13:54:02;63.13;;;11.13;;
76617;SDS011;65509;42.816;74.648;2023-09-19T13:56:27;63.60;;;10.70;;
76617;SDS011;65509;42.816;74.648;2023-09-19T13:58:53;39.20;;;8.05;;
76617;SDS011;65509;42.816;74.648;2023-09-19T14:01:22;48.15;;;9.85;;
76617;SDS011;65509;42.816;74.648;2023-09-19T14:03:47;48.78;;;9.88;;
76617;SDS011;65509;42.816;74.648;2023-09-19T14:06:14;55.75;;;9.10;;
76617;SDS011;65509;42.816;74.648;2023-09-19T14:08:43;45.50;;;8.55;;
76617;SDS011;65509;42.816;74.648;2023-09-19T14:11:12;51.97;;;8.75;;
76617;SDS011;65509;42.816;74.648;2023-09-19T14:13:41;47.33;;;8.18;;
76617;SDS011;65509;42.816;74.648;2023-09-19T14:16:12;46.03;;;8.27;;
76617;SDS011;65509;42.816;74.648;2023-09-19T14:18:37;48.42;;;9.27;;
76617;SDS011;65509;42.816;74.648;2023-09-19T14:21:06;37.63;;;8.32;;
76617;SDS011;65509;42.816;74.648;2023-09-19T14:23:36;72.63;;;9.73;;
76617;SDS011;65509;42.816;74.648;2023-09-19T14:26:06;62.15;;;9.35;;
76617;SDS011;65509;42.816;74.648;2023-09-19T14:28:34;65.15;;;9.90;;
76617;SDS011;65509;42.816;74.648;2023-09-19T14:31:03;51.80;;;8.82;;
76617;SDS011;65509;42.816;74.648;2023-09-19T14:33:30;81.28;;;11.65;;
76617;SDS011;65509;42.816;74.648;2023-09-19T14:35:56;66.53;;;12.52;;
76617;SDS011;65509;42.816;74.648;2023-09-19T14:38:21;63.83;;;12.30;;
76617;SDS011;65509;42.816;74.648;2023-09-19T14:40:47;76.60;;;12.85;;
76617;SDS011;65509;42.816;74.648;2023-09-19T14:43:21;53.22;;;11.35;;
76617;SDS011;65509;42.816;74.648;2023-09-19T14:45:52;50.38;;;11.75;;
76617;SDS011;65509;42.816;74.648;2023-09-19T14:48:22;56.88;;;10.43;;
76617;SDS011;65509;42.816;74.648;2023-09-19T14:50:50;42.83;;;8.77;;
76617;SDS011;65509;42.816;74.648;2023-09-19T14:53:16;62.03;;;9.23;;
76617;SDS011;65509;42.816;74.648;2023-09-19T14:55:42;59.33;;;9.20;;
76617;SDS011;65509;42.816;74.648;2023-09-19T14:58:10;52.53;;;8.20;;
76617;SDS011;65509;42.816;74.648;2023-09-19T15:00:35;58.50;;;9.25;;
76617;SDS011;65509;42.816;74.648;2023-09-19T15:03:01;53.60;;;8.40;;
76617;SDS011;65509;42.816;74.648;2023-09-19T15:05:29;48.67;;;8.02;;
76617;SDS011;65509;42.816;74.648;2023-09-19T15:07:55;49.90;;;8.43;;
76617;SDS011;65509;42.816;74.648;2023-09-19T15:10:24;51.28;;;9.60;;
76617;SDS011;65509;42.816;74.648;2023-09-19T15:12:50;52.17;;;10.40;;
76617;SDS011;65509;42.816;74.648;2023-09-19T15:15:19;57.80;;;14.43;;
76617;SDS011;65509;42.816;74.648;2023-09-19T15:17:44;59.60;;;14.77;;
76617;SDS011;65509;42.816;74.648;2023-09-19T15:20:10;38.08;;;9.52;;
76617;SDS011;65509;42.816;74.648;2023-09-19T15:22:39;71.47;;;11.77;;
76617;SDS011;65509;42.816;74.648;2023-09-19T15:25:07;49.50;;;9.38;;
76617;SDS011;65509;42.816;74.648;2023-09-19T15:27:33;48.55;;;7.78;;
76617;SDS011;65509;42.816;74.648;2023-09-19T15:29:59;42.90;;;8.57;;
76617;SDS011;65509;42.816;74.648;2023-09-19T15:32:28;44.33;;;7.72;;
76617;SDS011;65509;42.816;74.648;2023-09-19T15:34:54;49.97;;;7.55;;
76617;SDS011;65509;42.816;74.648;2023-09-19T15:37:20;49.85;;;6.97;;
76617;SDS011;65509;42.816;74.648;2023-09-19T15:39:48;48.88;;;8.40;;
76617;SDS011;65509;42.816;74.648;2023-09-19T15:42:14;57.05;;;9.68;;
76617;SDS011;65509;42.816;74.648;2023-09-19T15:44:44;45.38;;;8.55;;